sensor_id;sensor_type;location;lat;lon;timestamp;temperature;humidity
40868;DHT22;26586;50.708;22.412;2023-04-06T00:02:16;13.80;51.20
40868;DHT22;26586;50.708;22.412;2023-04-06T00:04:44;13.80;50.70
40868;DHT22;26586;50.708;22.412;2023-04-06T00:07:10;13.80;43.90
40868;DHT22;26586;50.708;22.412;2023-04-06T00:09:36;13.80;51.50
40868;DHT22;26586;50.708;22.412;2023-04-06T00:12:02;13.80;42.90
40868;DHT22;26586;50.708;22.412;2023-04-06T00:14:28;13.80;48.80
40868;DHT22;26586;50.708;22.412;2023-04-06T00:16:55;13.80;45.00
40868;DHT22;26586;50.708;22.412;2023-04-06T00:19:22;13.70;45.90
40868;DHT22;26586;50.708;22.412;2023-04-06T00:21:48;13.70;52.20
40868;DHT22;26586;50.708;22.412;2023-04-06T00:24:14;13.70;46.70
40868;DHT22;26586;50.708;22.412;2023-04-06T00:26:40;13.70;43.80
40868;DHT22;26586;50.708;22.412;2023-04-06T00:29:06;13.70;51.50
40868;DHT22;26586;50.708;22.412;2023-04-06T00:31:32;13.70;49.00
40868;DHT22;26586;50.708;22.412;2023-04-06T00:33:59;13.70;47.10
40868;DHT22;26586;50.708;22.412;2023-04-06T00:36:25;13.70;49.40
40868;DHT22;26586;50.708;22.412;2023-04-06T00:38:51;13.70;52.50
40868;DHT22;26586;50.708;22.412;2023-04-06T00:41:18;13.70;50.40
40868;DHT22;26586;50.708;22.412;2023-04-06T00:43:44;13.70;51.20
40868;DHT22;26586;50.708;22.412;2023-04-06T00:46:10;13.70;47.20
40868;DHT22;26586;50.708;22.412;2023-04-06T00:48:37;13.70;47.70
40868;DHT22;26586;50.708;22.412;2023-04-06T00:51:03;13.70;51.70
40868;DHT22;26586;50.708;22.412;2023-04-06T00:53:30;13.70;49.60
40868;DHT22;26586;50.708;22.412;2023-04-06T00:58:31;13.70;47.60
40868;DHT22;26586;50.708;22.412;2023-04-06T01:00:58;13.60;47.10
40868;DHT22;26586;50.708;22.412;2023-04-06T01:03:24;13.60;49.10
40868;DHT22;26586;50.708;22.412;2023-04-06T01:05:51;13.60;45.10
40868;DHT22;26586;50.708;22.412;2023-04-06T01:08:21;13.60;45.40
40868;DHT22;26586;50.708;22.412;2023-04-06T01:10:47;13.60;45.80
40868;DHT22;26586;50.708;22.412;2023-04-06T01:13:13;13.60;48.00
40868;DHT22;26586;50.708;22.412;2023-04-06T01:15:40;13.60;52.40
40868;DHT22;26586;50.708;22.412;2023-04-06T01:18:08;13.60;46.00
40868;DHT22;26586;50.708;22.412;2023-04-06T01:20:36;13.60;48.50
40868;DHT22;26586;50.708;22.412;2023-04-06T01:23:02;13.60;46.20
40868;DHT22;26586;50.708;22.412;2023-04-06T01:25:29;13.50;49.50
40868;DHT22;26586;50.708;22.412;2023-04-06T01:27:55;13.50;52.00
40868;DHT22;26586;50.708;22.412;2023-04-06T01:30:21;13.50;45.40
40868;DHT22;26586;50.708;22.412;2023-04-06T01:32:47;13.50;46.60
40868;DHT22;26586;50.708;22.412;2023-04-06T01:35:14;13.50;48.90
40868;DHT22;26586;50.708;22.412;2023-04-06T01:37:40;13.50;51.20
40868;DHT22;26586;50.708;22.412;2023-04-06T01:40:07;13.50;47.40
40868;DHT22;26586;50.708;22.412;2023-04-06T01:42:35;13.50;50.00
40868;DHT22;26586;50.708;22.412;2023-04-06T01:45:02;13.50;46.70
40868;DHT22;26586;50.708;22.412;2023-04-06T01:47:28;13.50;48.50
40868;DHT22;26586;50.708;22.412;2023-04-06T01:49:54;13.50;50.60
40868;DHT22;26586;50.708;22.412;2023-04-06T01:52:20;13.50;48.50
40868;DHT22;26586;50.708;22.412;2023-04-06T01:54:47;13.50;49.80
40868;DHT22;26586;50.708;22.412;2023-04-06T01:57:13;13.50;47.60
40868;DHT22;26586;50.708;22.412;2023-04-06T01:59:39;13.40;53.00
40868;DHT22;26586;50.708;22.412;2023-04-06T02:02:05;13.40;56.20
40868;DHT22;26586;50.708;22.412;2023-04-06T02:04:32;13.50;55.60
40868;DHT22;26586;50.708;22.412;2023-04-06T02:06:58;13.50;56.20
40868;DHT22;26586;50.708;22.412;2023-04-06T02:09:24;13.50;48.80
40868;DHT22;26586;50.708;22.412;2023-04-06T02:11:50;13.50;50.40
40868;DHT22;26586;50.708;22.412;2023-04-06T02:14:16;13.50;52.80
40868;DHT22;26586;50.708;22.412;2023-04-06T02:16:42;13.50;50.00
40868;DHT22;26586;50.708;22.412;2023-04-06T02:19:09;13.50;50.90
40868;DHT22;26586;50.708;22.412;2023-04-06T02:21:35;13.50;51.80
40868;DHT22;26586;50.708;22.412;2023-04-06T02:24:01;13.50;50.60
40868;DHT22;26586;50.708;22.412;2023-04-06T02:26:27;13.50;50.50
40868;DHT22;26586;50.708;22.412;2023-04-06T02:28:53;13.50;46.30
40868;DHT22;26586;50.708;22.412;2023-04-06T02:31:19;13.40;50.90
40868;DHT22;26586;50.708;22.412;2023-04-06T02:33:46;13.40;50.30
40868;DHT22;26586;50.708;22.412;2023-04-06T02:36:12;13.40;46.80
40868;DHT22;26586;50.708;22.412;2023-04-06T02:38:39;13.40;48.60
40868;DHT22;26586;50.708;22.412;2023-04-06T02:41:05;13.40;58.40
40868;DHT22;26586;50.708;22.412;2023-04-06T02:43:32;13.40;50.00
40868;DHT22;26586;50.708;22.412;2023-04-06T02:45:58;13.40;50.50
40868;DHT22;26586;50.708;22.412;2023-04-06T02:48:24;13.40;52.20
40868;DHT22;26586;50.708;22.412;2023-04-06T02:50:51;13.40;49.20
40868;DHT22;26586;50.708;22.412;2023-04-06T02:53:17;13.40;51.20
40868;DHT22;26586;50.708;22.412;2023-04-06T02:55:43;13.40;48.30
40868;DHT22;26586;50.708;22.412;2023-04-06T02:58:09;13.40;51.30
40868;DHT22;26586;50.708;22.412;2023-04-06T03:00:36;13.40;50.30
40868;DHT22;26586;50.708;22.412;2023-04-06T03:03:02;13.40;52.60
40868;DHT22;26586;50.708;22.412;2023-04-06T03:05:29;13.30;51.60
40868;DHT22;26586;50.708;22.412;2023-04-06T03:07:56;13.30;49.90
40868;DHT22;26586;50.708;22.412;2023-04-06T03:10:22;13.30;54.90
40868;DHT22;26586;50.708;22.412;2023-04-06T03:12:48;13.30;49.90
40868;DHT22;26586;50.708;22.412;2023-04-06T03:15:14;13.30;54.80
40868;DHT22;26586;50.708;22.412;2023-04-06T03:17:41;13.40;50.40
40868;DHT22;26586;50.708;22.412;2023-04-06T03:20:07;13.30;51.70
40868;DHT22;26586;50.708;22.412;2023-04-06T03:22:34;13.30;48.00
40868;DHT22;26586;50.708;22.412;2023-04-06T03:25:00;13.30;56.30
40868;DHT22;26586;50.708;22.412;2023-04-06T03:27:26;13.30;57.00
40868;DHT22;26586;50.708;22.412;2023-04-06T03:29:52;13.30;59.20
40868;DHT22;26586;50.708;22.412;2023-04-06T03:32:18;13.40;53.00
40868;DHT22;26586;50.708;22.412;2023-04-06T03:34:44;13.30;55.20
40868;DHT22;26586;50.708;22.412;2023-04-06T03:37:11;13.30;54.80
40868;DHT22;26586;50.708;22.412;2023-04-06T03:39:37;13.30;52.40
40868;DHT22;26586;50.708;22.412;2023-04-06T03:42:03;13.30;52.70
40868;DHT22;26586;50.708;22.412;2023-04-06T03:44:29;13.30;50.00
40868;DHT22;26586;50.708;22.412;2023-04-06T03:46:56;13.30;55.10
40868;DHT22;26586;50.708;22.412;2023-04-06T03:49:22;13.30;51.70
40868;DHT22;26586;50.708;22.412;2023-04-06T03:51:48;13.30;55.00
40868;DHT22;26586;50.708;22.412;2023-04-06T03:54:15;13.30;60.70
40868;DHT22;26586;50.708;22.412;2023-04-06T03:56:41;13.30;65.40
40868;DHT22;26586;50.708;22.412;2023-04-06T03:59:07;13.40;55.90
40868;DHT22;26586;50.708;22.412;2023-04-06T04:01:33;13.30;56.40
40868;DHT22;26586;50.708;22.412;2023-04-06T04:03:59;13.30;57.50
40868;DHT22;26586;50.708;22.412;2023-04-06T04:06:26;13.30;62.60
40868;DHT22;26586;50.708;22.412;2023-04-06T04:08:52;13.30;56.80
40868;DHT22;26586;50.708;22.412;2023-04-06T04:11:19;13.40;52.30
40868;DHT22;26586;50.708;22.412;2023-04-06T04:13:45;13.30;59.00
40868;DHT22;26586;50.708;22.412;2023-04-06T04:16:11;13.30;58.60
40868;DHT22;26586;50.708;22.412;2023-04-06T04:18:38;13.30;61.00
40868;DHT22;26586;50.708;22.412;2023-04-06T04:21:04;13.30;62.20
40868;DHT22;26586;50.708;22.412;2023-04-06T04:23:30;13.30;55.20
40868;DHT22;26586;50.708;22.412;2023-04-06T04:25:57;13.40;58.30
40868;DHT22;26586;50.708;22.412;2023-04-06T04:28:23;13.40;64.60
40868;DHT22;26586;50.708;22.412;2023-04-06T04:30:49;13.40;65.60
40868;DHT22;26586;50.708;22.412;2023-04-06T04:33:15;13.50;65.30
40868;DHT22;26586;50.708;22.412;2023-04-06T04:35:42;13.50;63.90
40868;DHT22;26586;50.708;22.412;2023-04-06T04:38:08;13.50;63.10
40868;DHT22;26586;50.708;22.412;2023-04-06T04:40:34;13.60;66.90
40868;DHT22;26586;50.708;22.412;2023-04-06T04:43:00;13.60;68.50
40868;DHT22;26586;50.708;22.412;2023-04-06T04:45:27;13.70;68.00
40868;DHT22;26586;50.708;22.412;2023-04-06T04:47:53;13.70;62.40
40868;DHT22;26586;50.708;22.412;2023-04-06T04:50:19;13.70;54.10
40868;DHT22;26586;50.708;22.412;2023-04-06T04:52:45;13.70;60.90
40868;DHT22;26586;50.708;22.412;2023-04-06T04:55:11;13.70;62.20
40868;DHT22;26586;50.708;22.412;2023-04-06T04:57:37;13.80;59.90
40868;DHT22;26586;50.708;22.412;2023-04-06T05:00:04;13.80;64.60
40868;DHT22;26586;50.708;22.412;2023-04-06T05:02:30;13.80;61.60
40868;DHT22;26586;50.708;22.412;2023-04-06T05:04:57;13.80;63.10
40868;DHT22;26586;50.708;22.412;2023-04-06T05:07:23;13.80;60.30
40868;DHT22;26586;50.708;22.412;2023-04-06T05:09:49;13.80;56.60
40868;DHT22;26586;50.708;22.412;2023-04-06T05:12:15;13.80;58.60
40868;DHT22;26586;50.708;22.412;2023-04-06T05:14:42;13.80;60.80
40868;DHT22;26586;50.708;22.412;2023-04-06T05:17:08;13.80;66.00
40868;DHT22;26586;50.708;22.412;2023-04-06T05:19:34;13.80;58.00
40868;DHT22;26586;50.708;22.412;2023-04-06T05:22:01;13.90;68.50
40868;DHT22;26586;50.708;22.412;2023-04-06T05:24:27;13.80;66.10
40868;DHT22;26586;50.708;22.412;2023-04-06T05:26:53;13.90;66.80
40868;DHT22;26586;50.708;22.412;2023-04-06T05:29:19;13.90;67.70
40868;DHT22;26586;50.708;22.412;2023-04-06T05:31:46;13.90;60.10
40868;DHT22;26586;50.708;22.412;2023-04-06T05:34:13;14.00;65.10
40868;DHT22;26586;50.708;22.412;2023-04-06T05:36:39;14.00;64.60
40868;DHT22;26586;50.708;22.412;2023-04-06T05:39:06;14.00;65.30
40868;DHT22;26586;50.708;22.412;2023-04-06T05:41:33;14.10;74.20
40868;DHT22;26586;50.708;22.412;2023-04-06T05:43:59;14.10;68.00
40868;DHT22;26586;50.708;22.412;2023-04-06T05:46:25;14.20;65.30
40868;DHT22;26586;50.708;22.412;2023-04-06T05:48:52;14.20;66.20
40868;DHT22;26586;50.708;22.412;2023-04-06T05:51:18;14.20;63.50
40868;DHT22;26586;50.708;22.412;2023-04-06T05:53:44;14.30;64.60
40868;DHT22;26586;50.708;22.412;2023-04-06T05:56:10;14.20;66.80
40868;DHT22;26586;50.708;22.412;2023-04-06T05:58:37;14.30;61.00
40868;DHT22;26586;50.708;22.412;2023-04-06T06:01:03;14.30;69.70
40868;DHT22;26586;50.708;22.412;2023-04-06T06:03:31;14.30;57.70
40868;DHT22;26586;50.708;22.412;2023-04-06T06:06:03;14.30;64.40
40868;DHT22;26586;50.708;22.412;2023-04-06T06:08:30;14.30;60.20
40868;DHT22;26586;50.708;22.412;2023-04-06T06:10:56;14.30;66.40
40868;DHT22;26586;50.708;22.412;2023-04-06T06:13:23;14.30;66.30
40868;DHT22;26586;50.708;22.412;2023-04-06T06:15:50;14.30;70.10
40868;DHT22;26586;50.708;22.412;2023-04-06T06:18:16;14.40;64.50
40868;DHT22;26586;50.708;22.412;2023-04-06T06:20:42;14.40;58.90
40868;DHT22;26586;50.708;22.412;2023-04-06T06:23:09;14.30;69.20
40868;DHT22;26586;50.708;22.412;2023-04-06T06:25:35;14.30;62.90
40868;DHT22;26586;50.708;22.412;2023-04-06T06:28:01;14.30;62.90
40868;DHT22;26586;50.708;22.412;2023-04-06T06:30:27;14.40;65.40
40868;DHT22;26586;50.708;22.412;2023-04-06T06:32:54;14.30;65.20
40868;DHT22;26586;50.708;22.412;2023-04-06T06:35:20;14.40;63.40
40868;DHT22;26586;50.708;22.412;2023-04-06T06:37:46;14.40;59.50
40868;DHT22;26586;50.708;22.412;2023-04-06T06:40:12;14.40;59.10
40868;DHT22;26586;50.708;22.412;2023-04-06T06:42:39;14.40;61.10
40868;DHT22;26586;50.708;22.412;2023-04-06T06:45:07;14.30;59.30
40868;DHT22;26586;50.708;22.412;2023-04-06T06:47:34;14.30;53.60
40868;DHT22;26586;50.708;22.412;2023-04-06T06:50:00;14.30;52.30
40868;DHT22;26586;50.708;22.412;2023-04-06T06:52:26;14.20;54.60
40868;DHT22;26586;50.708;22.412;2023-04-06T06:54:54;14.20;57.60
40868;DHT22;26586;50.708;22.412;2023-04-06T06:57:22;14.20;54.60
40868;DHT22;26586;50.708;22.412;2023-04-06T06:59:48;14.10;53.80
40868;DHT22;26586;50.708;22.412;2023-04-06T07:02:14;14.10;52.20
40868;DHT22;26586;50.708;22.412;2023-04-06T07:04:40;14.10;52.40
40868;DHT22;26586;50.708;22.412;2023-04-06T07:07:07;14.10;50.40
40868;DHT22;26586;50.708;22.412;2023-04-06T07:09:34;14.10;56.40
40868;DHT22;26586;50.708;22.412;2023-04-06T07:12:01;14.10;54.30
40868;DHT22;26586;50.708;22.412;2023-04-06T07:14:27;14.10;56.40
40868;DHT22;26586;50.708;22.412;2023-04-06T07:16:54;14.10;52.90
40868;DHT22;26586;50.708;22.412;2023-04-06T07:19:20;14.10;57.40
40868;DHT22;26586;50.708;22.412;2023-04-06T07:21:46;14.10;55.60
40868;DHT22;26586;50.708;22.412;2023-04-06T07:24:12;14.10;57.20
40868;DHT22;26586;50.708;22.412;2023-04-06T07:26:38;14.10;56.70
40868;DHT22;26586;50.708;22.412;2023-04-06T07:29:04;14.10;51.20
40868;DHT22;26586;50.708;22.412;2023-04-06T07:31:31;14.10;54.20
40868;DHT22;26586;50.708;22.412;2023-04-06T07:33:57;14.10;54.60
40868;DHT22;26586;50.708;22.412;2023-04-06T07:36:23;14.10;54.60
40868;DHT22;26586;50.708;22.412;2023-04-06T07:38:49;14.10;49.70
40868;DHT22;26586;50.708;22.412;2023-04-06T07:41:15;14.10;51.10
40868;DHT22;26586;50.708;22.412;2023-04-06T07:43:42;14.10;53.70
40868;DHT22;26586;50.708;22.412;2023-04-06T07:46:08;14.10;52.50
40868;DHT22;26586;50.708;22.412;2023-04-06T07:48:34;14.10;52.70
40868;DHT22;26586;50.708;22.412;2023-04-06T07:51:02;14.10;53.00
40868;DHT22;26586;50.708;22.412;2023-04-06T07:53:29;14.10;52.90
40868;DHT22;26586;50.708;22.412;2023-04-06T07:55:55;14.10;49.90
40868;DHT22;26586;50.708;22.412;2023-04-06T07:58:21;14.00;52.60
40868;DHT22;26586;50.708;22.412;2023-04-06T08:00:48;14.10;55.50
40868;DHT22;26586;50.708;22.412;2023-04-06T08:03:14;14.10;59.70
40868;DHT22;26586;50.708;22.412;2023-04-06T08:05:40;14.10;62.30
40868;DHT22;26586;50.708;22.412;2023-04-06T08:08:06;14.20;66.20
40868;DHT22;26586;50.708;22.412;2023-04-06T08:10:33;14.20;57.30
40868;DHT22;26586;50.708;22.412;2023-04-06T08:13:00;14.20;56.60
40868;DHT22;26586;50.708;22.412;2023-04-06T08:15:26;14.30;59.00
40868;DHT22;26586;50.708;22.412;2023-04-06T08:17:52;14.30;64.50
40868;DHT22;26586;50.708;22.412;2023-04-06T08:20:19;14.30;58.60
40868;DHT22;26586;50.708;22.412;2023-04-06T08:22:45;14.30;53.90
40868;DHT22;26586;50.708;22.412;2023-04-06T08:25:12;14.30;57.40
40868;DHT22;26586;50.708;22.412;2023-04-06T08:27:38;14.30;62.10
40868;DHT22;26586;50.708;22.412;2023-04-06T08:30:04;14.40;60.00
40868;DHT22;26586;50.708;22.412;2023-04-06T08:32:30;14.30;57.60
40868;DHT22;26586;50.708;22.412;2023-04-06T08:34:57;14.30;55.80
40868;DHT22;26586;50.708;22.412;2023-04-06T08:37:23;14.40;52.90
40868;DHT22;26586;50.708;22.412;2023-04-06T08:39:49;14.30;50.50
40868;DHT22;26586;50.708;22.412;2023-04-06T08:42:21;14.30;52.80
40868;DHT22;26586;50.708;22.412;2023-04-06T08:44:49;14.30;52.30
40868;DHT22;26586;50.708;22.412;2023-04-06T08:47:16;14.30;52.60
40868;DHT22;26586;50.708;22.412;2023-04-06T08:49:44;14.20;50.10
40868;DHT22;26586;50.708;22.412;2023-04-06T08:52:10;14.20;54.30
40868;DHT22;26586;50.708;22.412;2023-04-06T08:54:38;14.20;57.70
40868;DHT22;26586;50.708;22.412;2023-04-06T08:57:05;14.20;53.30
40868;DHT22;26586;50.708;22.412;2023-04-06T08:59:32;14.20;60.10
40868;DHT22;26586;50.708;22.412;2023-04-06T09:01:59;14.20;57.40
40868;DHT22;26586;50.708;22.412;2023-04-06T09:04:28;14.20;58.30
40868;DHT22;26586;50.708;22.412;2023-04-06T09:06:54;14.30;58.80
40868;DHT22;26586;50.708;22.412;2023-04-06T09:09:20;14.30;55.80
40868;DHT22;26586;50.708;22.412;2023-04-06T09:11:49;14.30;57.90
40868;DHT22;26586;50.708;22.412;2023-04-06T09:14:17;14.30;58.40
40868;DHT22;26586;50.708;22.412;2023-04-06T09:16:44;14.30;61.40
40868;DHT22;26586;50.708;22.412;2023-04-06T09:19:12;14.30;64.80
40868;DHT22;26586;50.708;22.412;2023-04-06T09:21:38;14.40;62.30
40868;DHT22;26586;50.708;22.412;2023-04-06T09:24:07;14.40;56.50
40868;DHT22;26586;50.708;22.412;2023-04-06T09:26:45;14.40;62.00
40868;DHT22;26586;50.708;22.412;2023-04-06T09:29:22;14.40;59.80
40868;DHT22;26586;50.708;22.412;2023-04-06T09:31:49;14.40;58.60
40868;DHT22;26586;50.708;22.412;2023-04-06T09:34:22;14.40;64.30
40868;DHT22;26586;50.708;22.412;2023-04-06T09:36:49;14.50;63.10
40868;DHT22;26586;50.708;22.412;2023-04-06T09:39:21;14.50;54.70
40868;DHT22;26586;50.708;22.412;2023-04-06T09:41:51;14.50;54.80
40868;DHT22;26586;50.708;22.412;2023-04-06T09:44:18;14.40;52.40
40868;DHT22;26586;50.708;22.412;2023-04-06T09:46:45;14.40;57.80
40868;DHT22;26586;50.708;22.412;2023-04-06T09:49:12;14.40;54.50
40868;DHT22;26586;50.708;22.412;2023-04-06T09:51:53;14.50;59.90
40868;DHT22;26586;50.708;22.412;2023-04-06T09:54:21;14.40;62.70
40868;DHT22;26586;50.708;22.412;2023-04-06T09:57:13;14.50;56.10
40868;DHT22;26586;50.708;22.412;2023-04-06T10:00:03;14.50;64.60
40868;DHT22;26586;50.708;22.412;2023-04-06T10:08:10;14.60;59.30
40868;DHT22;26586;50.708;22.412;2023-04-06T10:10:37;14.50;66.80
40868;DHT22;26586;50.708;22.412;2023-04-06T10:13:04;14.60;61.00
40868;DHT22;26586;50.708;22.412;2023-04-06T10:15:31;14.70;66.20
40868;DHT22;26586;50.708;22.412;2023-04-06T10:17:58;14.70;60.70
40868;DHT22;26586;50.708;22.412;2023-04-06T10:23:08;14.70;61.80
40868;DHT22;26586;50.708;22.412;2023-04-06T10:25:35;14.80;64.50
40868;DHT22;26586;50.708;22.412;2023-04-06T10:28:07;14.80;67.90
40868;DHT22;26586;50.708;22.412;2023-04-06T10:30:35;14.90;70.40
40868;DHT22;26586;50.708;22.412;2023-04-06T10:33:18;14.90;68.00
40868;DHT22;26586;50.708;22.412;2023-04-06T10:35:46;15.00;66.40
40868;DHT22;26586;50.708;22.412;2023-04-06T10:38:12;15.10;62.00
40868;DHT22;26586;50.708;22.412;2023-04-06T10:40:42;15.10;62.80
40868;DHT22;26586;50.708;22.412;2023-04-06T10:43:22;15.10;70.70
40868;DHT22;26586;50.708;22.412;2023-04-06T10:45:57;15.10;59.80
40868;DHT22;26586;50.708;22.412;2023-04-06T10:48:24;15.10;61.80
40868;DHT22;26586;50.708;22.412;2023-04-06T10:50:52;15.20;61.40
40868;DHT22;26586;50.708;22.412;2023-04-06T10:53:24;15.10;63.60
40868;DHT22;26586;50.708;22.412;2023-04-06T10:55:51;15.20;57.20
40868;DHT22;26586;50.708;22.412;2023-04-06T10:58:18;15.20;54.60
40868;DHT22;26586;50.708;22.412;2023-04-06T11:00:46;15.20;59.30
40868;DHT22;26586;50.708;22.412;2023-04-06T11:03:12;15.10;64.20
40868;DHT22;26586;50.708;22.412;2023-04-06T11:05:38;15.10;65.50
40868;DHT22;26586;50.708;22.412;2023-04-06T11:08:08;15.20;57.20
40868;DHT22;26586;50.708;22.412;2023-04-06T11:10:38;15.20;59.00
40868;DHT22;26586;50.708;22.412;2023-04-06T11:13:04;15.20;58.20
40868;DHT22;26586;50.708;22.412;2023-04-06T11:15:34;15.20;56.40
40868;DHT22;26586;50.708;22.412;2023-04-06T11:18:04;15.20;55.10
40868;DHT22;26586;50.708;22.412;2023-04-06T11:20:31;15.20;58.60
40868;DHT22;26586;50.708;22.412;2023-04-06T11:22:57;15.10;53.00
40868;DHT22;26586;50.708;22.412;2023-04-06T11:25:25;15.20;60.40
40868;DHT22;26586;50.708;22.412;2023-04-06T11:27:53;15.20;52.60
40868;DHT22;26586;50.708;22.412;2023-04-06T11:30:20;15.20;54.70
40868;DHT22;26586;50.708;22.412;2023-04-06T11:32:46;15.10;54.90
40868;DHT22;26586;50.708;22.412;2023-04-06T11:35:23;15.10;60.50
40868;DHT22;26586;50.708;22.412;2023-04-06T11:37:50;15.20;52.20
40868;DHT22;26586;50.708;22.412;2023-04-06T11:40:25;15.20;51.20
40868;DHT22;26586;50.708;22.412;2023-04-06T11:42:53;15.10;54.90
40868;DHT22;26586;50.708;22.412;2023-04-06T11:45:20;15.20;59.00
40868;DHT22;26586;50.708;22.412;2023-04-06T11:47:58;15.20;55.50
40868;DHT22;26586;50.708;22.412;2023-04-06T11:50:25;15.20;51.00
40868;DHT22;26586;50.708;22.412;2023-04-06T11:53:01;15.20;51.80
40868;DHT22;26586;50.708;22.412;2023-04-06T11:55:29;15.10;53.50
40868;DHT22;26586;50.708;22.412;2023-04-06T11:57:55;15.10;52.80
40868;DHT22;26586;50.708;22.412;2023-04-06T12:00:21;15.10;54.90
40868;DHT22;26586;50.708;22.412;2023-04-06T12:02:48;15.10;52.00
40868;DHT22;26586;50.708;22.412;2023-04-06T12:05:15;15.10;50.80
40868;DHT22;26586;50.708;22.412;2023-04-06T12:07:41;15.10;50.60
40868;DHT22;26586;50.708;22.412;2023-04-06T12:10:08;15.10;52.10
40868;DHT22;26586;50.708;22.412;2023-04-06T12:12:34;15.10;55.80
40868;DHT22;26586;50.708;22.412;2023-04-06T12:15:00;15.10;53.70
40868;DHT22;26586;50.708;22.412;2023-04-06T12:17:26;15.10;52.40
40868;DHT22;26586;50.708;22.412;2023-04-06T12:19:53;15.10;57.20
40868;DHT22;26586;50.708;22.412;2023-04-06T12:22:19;15.10;56.60
40868;DHT22;26586;50.708;22.412;2023-04-06T12:24:45;15.20;56.90
40868;DHT22;26586;50.708;22.412;2023-04-06T12:27:11;15.10;57.30
40868;DHT22;26586;50.708;22.412;2023-04-06T12:29:38;15.20;58.50
40868;DHT22;26586;50.708;22.412;2023-04-06T12:32:04;15.20;57.00
40868;DHT22;26586;50.708;22.412;2023-04-06T12:34:32;15.20;57.50
40868;DHT22;26586;50.708;22.412;2023-04-06T12:36:58;15.20;53.40
40868;DHT22;26586;50.708;22.412;2023-04-06T12:39:24;15.20;55.00
40868;DHT22;26586;50.708;22.412;2023-04-06T12:41:51;15.30;55.00
40868;DHT22;26586;50.708;22.412;2023-04-06T12:44:17;15.20;59.40
40868;DHT22;26586;50.708;22.412;2023-04-06T12:46:43;15.30;60.80
40868;DHT22;26586;50.708;22.412;2023-04-06T12:49:09;15.30;56.60
40868;DHT22;26586;50.708;22.412;2023-04-06T12:51:36;15.30;52.30
40868;DHT22;26586;50.708;22.412;2023-04-06T12:54:02;15.30;53.80
40868;DHT22;26586;50.708;22.412;2023-04-06T12:56:28;15.30;52.00
40868;DHT22;26586;50.708;22.412;2023-04-06T12:58:55;15.30;54.00
40868;DHT22;26586;50.708;22.412;2023-04-06T13:01:21;15.30;53.10
40868;DHT22;26586;50.708;22.412;2023-04-06T13:03:47;15.30;56.20
40868;DHT22;26586;50.708;22.412;2023-04-06T13:06:13;15.30;58.00
40868;DHT22;26586;50.708;22.412;2023-04-06T13:08:41;15.30;59.60
40868;DHT22;26586;50.708;22.412;2023-04-06T13:11:07;15.40;56.60
40868;DHT22;26586;50.708;22.412;2023-04-06T13:13:35;15.40;54.30
40868;DHT22;26586;50.708;22.412;2023-04-06T13:16:03;15.40;54.60
40868;DHT22;26586;50.708;22.412;2023-04-06T13:18:31;15.30;54.10
40868;DHT22;26586;50.708;22.412;2023-04-06T13:20:58;15.30;56.50
40868;DHT22;26586;50.708;22.412;2023-04-06T13:23:26;15.30;54.60
40868;DHT22;26586;50.708;22.412;2023-04-06T13:26:05;15.30;54.90
40868;DHT22;26586;50.708;22.412;2023-04-06T13:28:33;15.30;54.90
40868;DHT22;26586;50.708;22.412;2023-04-06T13:31:01;15.30;56.20
40868;DHT22;26586;50.708;22.412;2023-04-06T13:33:28;15.30;55.40
40868;DHT22;26586;50.708;22.412;2023-04-06T13:35:55;15.30;52.90
40868;DHT22;26586;50.708;22.412;2023-04-06T13:38:22;15.30;52.50
40868;DHT22;26586;50.708;22.412;2023-04-06T13:40:50;15.30;55.40
40868;DHT22;26586;50.708;22.412;2023-04-06T13:43:16;15.20;53.20
40868;DHT22;26586;50.708;22.412;2023-04-06T13:45:50;15.20;50.20
40868;DHT22;26586;50.708;22.412;2023-04-06T13:48:17;15.20;54.80
40868;DHT22;26586;50.708;22.412;2023-04-06T13:50:44;15.20;51.10
40868;DHT22;26586;50.708;22.412;2023-04-06T13:53:11;15.20;51.90
40868;DHT22;26586;50.708;22.412;2023-04-06T13:55:37;15.20;58.50
40868;DHT22;26586;50.708;22.412;2023-04-06T13:58:03;15.20;56.30
40868;DHT22;26586;50.708;22.412;2023-04-06T14:00:30;15.20;52.90
40868;DHT22;26586;50.708;22.412;2023-04-06T14:02:56;15.20;58.10
40868;DHT22;26586;50.708;22.412;2023-04-06T14:05:22;15.20;49.90
40868;DHT22;26586;50.708;22.412;2023-04-06T14:07:50;15.20;50.60
40868;DHT22;26586;50.708;22.412;2023-04-06T14:10:16;15.20;49.30
40868;DHT22;26586;50.708;22.412;2023-04-06T14:12:45;15.20;51.20
40868;DHT22;26586;50.708;22.412;2023-04-06T14:15:11;15.20;49.30
40868;DHT22;26586;50.708;22.412;2023-04-06T14:17:38;15.10;49.30
40868;DHT22;26586;50.708;22.412;2023-04-06T14:20:05;15.10;52.00
40868;DHT22;26586;50.708;22.412;2023-04-06T14:22:32;15.10;55.80
40868;DHT22;26586;50.708;22.412;2023-04-06T14:24:58;15.10;50.30
40868;DHT22;26586;50.708;22.412;2023-04-06T14:27:25;15.10;48.60
40868;DHT22;26586;50.708;22.412;2023-04-06T14:29:51;15.10;49.50
40868;DHT22;26586;50.708;22.412;2023-04-06T14:32:20;15.10;50.70
40868;DHT22;26586;50.708;22.412;2023-04-06T14:34:46;15.10;50.70
40868;DHT22;26586;50.708;22.412;2023-04-06T14:37:12;15.00;53.80
40868;DHT22;26586;50.708;22.412;2023-04-06T14:39:38;15.00;50.20
40868;DHT22;26586;50.708;22.412;2023-04-06T14:42:05;15.10;51.80
40868;DHT22;26586;50.708;22.412;2023-04-06T14:44:33;15.00;53.10
40868;DHT22;26586;50.708;22.412;2023-04-06T14:47:01;15.10;52.10
40868;DHT22;26586;50.708;22.412;2023-04-06T14:49:29;15.10;54.00
40868;DHT22;26586;50.708;22.412;2023-04-06T14:51:56;15.10;49.70
40868;DHT22;26586;50.708;22.412;2023-04-06T14:54:22;15.10;51.70
40868;DHT22;26586;50.708;22.412;2023-04-06T14:56:49;15.10;53.90
40868;DHT22;26586;50.708;22.412;2023-04-06T14:59:15;15.10;51.70
40868;DHT22;26586;50.708;22.412;2023-04-06T15:01:41;15.10;53.50
40868;DHT22;26586;50.708;22.412;2023-04-06T15:04:07;15.10;50.90
40868;DHT22;26586;50.708;22.412;2023-04-06T15:06:34;15.10;51.70
40868;DHT22;26586;50.708;22.412;2023-04-06T15:09:00;15.10;51.00
40868;DHT22;26586;50.708;22.412;2023-04-06T15:11:26;15.00;49.30
40868;DHT22;26586;50.708;22.412;2023-04-06T15:13:52;15.10;50.60
40868;DHT22;26586;50.708;22.412;2023-04-06T15:16:19;15.00;53.90
40868;DHT22;26586;50.708;22.412;2023-04-06T15:18:45;15.10;51.60
40868;DHT22;26586;50.708;22.412;2023-04-06T15:21:11;15.10;54.10
40868;DHT22;26586;50.708;22.412;2023-04-06T15:23:37;15.10;57.50
40868;DHT22;26586;50.708;22.412;2023-04-06T15:26:04;15.10;56.20